sensor_id;sensor_type;location;lat;lon;timestamp;P1;durP1;ratioP1;P2;durP2;ratioP2
45198;SDS011;30941;46.422;18.772;2023-09-19T00:00:21;12.52;;;8.77;;
45198;SDS011;30941;46.422;18.772;2023-09-19T00:05:24;14.73;;;8.70;;
45198;SDS011;30941;46.422;18.772;2023-09-19T00:07:53;12.40;;;9.73;;
45198;SDS011;30941;46.422;18.772;2023-09-19T00:10:20;12.00;;;8.55;;
45198;SDS011;30941;46.422;18.772;2023-09-19T00:12:50;10.48;;;7.97;;
45198;SDS011;30941;46.422;18.772;2023-09-19T00:15:18;13.60;;;9.07;;
45198;SDS011;30941;46.422;18.772;2023-09-19T00:17:44;14.00;;;8.20;;
45198;SDS011;30941;46.422;18.772;2023-09-19T00:20:09;11.15;;;8.07;;
45198;SDS011;30941;46.422;18.772;2023-09-19T00:22:41;15.82;;;8.73;;
45198;SDS011;30941;46.422;18.772;2023-09-19T00:25:07;17.30;;;8.65;;
45198;SDS011;30941;46.422;18.772;2023-09-19T00:27:34;15.75;;;8.95;;
45198;SDS011;30941;46.422;18.772;2023-09-19T00:30:00;12.63;;;7.72;;
45198;SDS011;30941;46.422;18.772;2023-09-19T00:32:25;16.08;;;8.35;;
45198;SDS011;30941;46.422;18.772;2023-09-19T00:34:56;14.55;;;8.43;;
45198;SDS011;30941;46.422;18.772;2023-09-19T00:37:22;13.43;;;7.85;;
45198;SDS011;30941;46.422;18.772;2023-09-19T00:39:47;11.07;;;8.07;;
45198;SDS011;30941;46.422;18.772;2023-09-19T00:42:21;13.75;;;8.52;;
45198;SDS011;30941;46.422;18.772;2023-09-19T00:44:47;10.77;;;7.97;;
45198;SDS011;30941;46.422;18.772;2023-09-19T00:47:16;12.25;;;8.10;;
45198;SDS011;30941;46.422;18.772;2023-09-19T00:49:42;12.27;;;8.18;;
45198;SDS011;30941;46.422;18.772;2023-09-19T00:52:08;24.15;;;8.77;;
45198;SDS011;30941;46.422;18.772;2023-09-19T00:54:35;15.05;;;8.23;;
45198;SDS011;30941;46.422;18.772;2023-09-19T00:57:01;13.93;;;8.30;;
45198;SDS011;30941;46.422;18.772;2023-09-19T00:59:27;11.77;;;9.10;;
45198;SDS011;30941;46.422;18.772;2023-09-19T01:01:53;16.35;;;8.55;;
45198;SDS011;30941;46.422;18.772;2023-09-19T01:04:19;12.32;;;9.23;;
45198;SDS011;30941;46.422;18.772;2023-09-19T01:06:45;13.60;;;8.65;;
45198;SDS011;30941;46.422;18.772;2023-09-19T01:09:11;12.50;;;8.88;;
45198;SDS011;30941;46.422;18.772;2023-09-19T01:11:43;10.90;;;7.80;;
45198;SDS011;30941;46.422;18.772;2023-09-19T01:14:13;11.23;;;7.90;;
45198;SDS011;30941;46.422;18.772;2023-09-19T01:27:31;13.30;;;8.00;;
45198;SDS011;30941;46.422;18.772;2023-09-19T01:30:14;13.60;;;8.40;;
45198;SDS011;30941;46.422;18.772;2023-09-19T01:32:43;12.48;;;8.45;;
45198;SDS011;30941;46.422;18.772;2023-09-19T01:35:11;12.85;;;8.90;;
45198;SDS011;30941;46.422;18.772;2023-09-19T01:37:38;17.00;;;8.20;;
45198;SDS011;30941;46.422;18.772;2023-09-19T01:40:07;15.05;;;8.27;;
45198;SDS011;30941;46.422;18.772;2023-09-19T01:45:46;20.85;;;9.20;;
45198;SDS011;30941;46.422;18.772;2023-09-19T01:51:07;15.97;;;9.00;;
45198;SDS011;30941;46.422;18.772;2023-09-19T01:53:36;12.77;;;8.00;;
45198;SDS011;30941;46.422;18.772;2023-09-19T01:56:10;16.98;;;8.60;;
45198;SDS011;30941;46.422;18.772;2023-09-19T01:58:42;12.43;;;8.95;;
45198;SDS011;30941;46.422;18.772;2023-09-19T02:01:12;11.23;;;8.43;;
45198;SDS011;30941;46.422;18.772;2023-09-19T02:03:40;12.13;;;8.02;;
45198;SDS011;30941;46.422;18.772;2023-09-19T02:06:06;14.00;;;8.50;;
45198;SDS011;30941;46.422;18.772;2023-09-19T02:08:36;15.88;;;8.77;;
45198;SDS011;30941;46.422;18.772;2023-09-19T02:11:02;19.38;;;9.57;;
45198;SDS011;30941;46.422;18.772;2023-09-19T02:13:27;16.27;;;8.98;;
45198;SDS011;30941;46.422;18.772;2023-09-19T02:15:53;13.48;;;8.48;;
45198;SDS011;30941;46.422;18.772;2023-09-19T02:18:18;13.02;;;8.48;;
45198;SDS011;30941;46.422;18.772;2023-09-19T02:20:45;13.45;;;8.75;;
45198;SDS011;30941;46.422;18.772;2023-09-19T02:23:11;14.52;;;8.90;;
45198;SDS011;30941;46.422;18.772;2023-09-19T02:25:37;14.02;;;9.55;;
45198;SDS011;30941;46.422;18.772;2023-09-19T02:28:05;14.55;;;9.13;;
45198;SDS011;30941;46.422;18.772;2023-09-19T02:30:31;15.07;;;9.55;;
45198;SDS011;30941;46.422;18.772;2023-09-19T02:32:57;12.23;;;9.13;;
45198;SDS011;30941;46.422;18.772;2023-09-19T02:35:23;17.23;;;9.25;;
45198;SDS011;30941;46.422;18.772;2023-09-19T02:37:48;12.93;;;8.82;;
45198;SDS011;30941;46.422;18.772;2023-09-19T02:40:14;13.40;;;8.73;;
45198;SDS011;30941;46.422;18.772;2023-09-19T02:42:53;14.00;;;8.57;;
45198;SDS011;30941;46.422;18.772;2023-09-19T02:45:19;13.50;;;9.48;;
45198;SDS011;30941;46.422;18.772;2023-09-19T02:47:45;14.65;;;10.05;;
45198;SDS011;30941;46.422;18.772;2023-09-19T02:50:12;17.25;;;10.40;;
45198;SDS011;30941;46.422;18.772;2023-09-19T02:52:38;17.58;;;10.10;;
45198;SDS011;30941;46.422;18.772;2023-09-19T02:55:08;14.10;;;10.05;;
45198;SDS011;30941;46.422;18.772;2023-09-19T02:57:34;12.57;;;9.90;;
45198;SDS011;30941;46.422;18.772;2023-09-19T03:00:06;16.42;;;10.43;;
45198;SDS011;30941;46.422;18.772;2023-09-19T03:02:37;17.73;;;10.55;;
45198;SDS011;30941;46.422;18.772;2023-09-19T03:05:05;14.65;;;9.82;;
45198;SDS011;30941;46.422;18.772;2023-09-19T03:07:31;18.92;;;10.73;;
45198;SDS011;30941;46.422;18.772;2023-09-19T03:09:57;17.52;;;10.63;;
45198;SDS011;30941;46.422;18.772;2023-09-19T03:12:22;15.93;;;10.60;;
45198;SDS011;30941;46.422;18.772;2023-09-19T03:14:47;14.75;;;10.38;;
45198;SDS011;30941;46.422;18.772;2023-09-19T03:17:13;16.70;;;10.45;;
45198;SDS011;30941;46.422;18.772;2023-09-19T03:19:39;14.82;;;9.93;;
45198;SDS011;30941;46.422;18.772;2023-09-19T03:22:05;18.85;;;10.52;;
45198;SDS011;30941;46.422;18.772;2023-09-19T03:24:30;16.77;;;10.63;;
45198;SDS011;30941;46.422;18.772;2023-09-19T03:26:56;13.15;;;10.18;;
45198;SDS011;30941;46.422;18.772;2023-09-19T03:29:22;19.35;;;11.20;;
45198;SDS011;30941;46.422;18.772;2023-09-19T03:31:48;18.00;;;10.45;;
45198;SDS011;30941;46.422;18.772;2023-09-19T03:34:13;16.52;;;11.40;;
45198;SDS011;30941;46.422;18.772;2023-09-19T03:36:38;17.90;;;10.73;;
45198;SDS011;30941;46.422;18.772;2023-09-19T03:39:05;18.10;;;10.70;;
45198;SDS011;30941;46.422;18.772;2023-09-19T03:41:31;17.33;;;10.80;;
45198;SDS011;30941;46.422;18.772;2023-09-19T03:43:58;14.52;;;10.40;;
45198;SDS011;30941;46.422;18.772;2023-09-19T03:46:23;16.10;;;10.45;;
45198;SDS011;30941;46.422;18.772;2023-09-19T03:48:49;16.33;;;11.18;;
45198;SDS011;30941;46.422;18.772;2023-09-19T03:51:15;21.48;;;11.70;;
45198;SDS011;30941;46.422;18.772;2023-09-19T03:53:40;15.15;;;10.82;;
45198;SDS011;30941;46.422;18.772;2023-09-19T03:56:06;15.27;;;10.73;;
45198;SDS011;30941;46.422;18.772;2023-09-19T03:58:33;14.35;;;11.52;;
45198;SDS011;30941;46.422;18.772;2023-09-19T04:01:03;16.83;;;10.80;;
45198;SDS011;30941;46.422;18.772;2023-09-19T04:03:28;16.92;;;10.63;;
45198;SDS011;30941;46.422;18.772;2023-09-19T04:06:00;14.40;;;11.50;;
45198;SDS011;30941;46.422;18.772;2023-09-19T04:08:26;16.33;;;11.50;;
45198;SDS011;30941;46.422;18.772;2023-09-19T04:10:51;18.83;;;11.70;;
45198;SDS011;30941;46.422;18.772;2023-09-19T04:13:18;16.58;;;12.10;;
45198;SDS011;30941;46.422;18.772;2023-09-19T04:15:43;16.70;;;11.75;;
45198;SDS011;30941;46.422;18.772;2023-09-19T04:18:11;15.13;;;11.77;;
45198;SDS011;30941;46.422;18.772;2023-09-19T04:20:37;17.48;;;13.00;;
45198;SDS011;30941;46.422;18.772;2023-09-19T04:23:02;17.60;;;12.05;;
45198;SDS011;30941;46.422;18.772;2023-09-19T04:25:29;17.60;;;12.73;;
45198;SDS011;30941;46.422;18.772;2023-09-19T04:27:55;19.83;;;12.98;;
45198;SDS011;30941;46.422;18.772;2023-09-19T04:30:20;16.55;;;12.73;;
45198;SDS011;30941;46.422;18.772;2023-09-19T04:32:46;16.95;;;12.00;;
45198;SDS011;30941;46.422;18.772;2023-09-19T04:35:15;21.83;;;13.13;;
45198;SDS011;30941;46.422;18.772;2023-09-19T04:37:40;25.20;;;13.27;;
45198;SDS011;30941;46.422;18.772;2023-09-19T04:40:09;18.88;;;12.50;;
45198;SDS011;30941;46.422;18.772;2023-09-19T04:42:42;17.98;;;13.35;;
45198;SDS011;30941;46.422;18.772;2023-09-19T04:45:11;17.52;;;12.52;;
45198;SDS011;30941;46.422;18.772;2023-09-19T04:47:37;18.58;;;14.20;;
45198;SDS011;30941;46.422;18.772;2023-09-19T04:50:07;17.02;;;13.05;;
45198;SDS011;30941;46.422;18.772;2023-09-19T04:52:36;19.23;;;13.88;;
45198;SDS011;30941;46.422;18.772;2023-09-19T04:55:03;17.45;;;13.95;;
45198;SDS011;30941;46.422;18.772;2023-09-19T04:57:28;23.38;;;14.43;;
45198;SDS011;30941;46.422;18.772;2023-09-19T04:59:54;19.88;;;13.45;;
45198;SDS011;30941;46.422;18.772;2023-09-19T05:02:20;17.23;;;13.40;;
45198;SDS011;30941;46.422;18.772;2023-09-19T05:04:46;15.15;;;13.25;;
45198;SDS011;30941;46.422;18.772;2023-09-19T05:07:11;17.70;;;12.38;;
45198;SDS011;30941;46.422;18.772;2023-09-19T05:09:36;21.27;;;14.38;;
45198;SDS011;30941;46.422;18.772;2023-09-19T05:12:02;19.80;;;13.00;;
45198;SDS011;30941;46.422;18.772;2023-09-19T05:14:28;17.83;;;13.57;;
45198;SDS011;30941;46.422;18.772;2023-09-19T05:16:53;17.52;;;13.27;;
45198;SDS011;30941;46.422;18.772;2023-09-19T05:19:19;16.13;;;13.75;;
45198;SDS011;30941;46.422;18.772;2023-09-19T05:21:45;14.65;;;12.65;;
45198;SDS011;30941;46.422;18.772;2023-09-19T05:24:11;17.40;;;12.80;;
45198;SDS011;30941;46.422;18.772;2023-09-19T05:26:37;16.30;;;12.38;;
45198;SDS011;30941;46.422;18.772;2023-09-19T05:29:02;17.45;;;14.52;;
45198;SDS011;30941;46.422;18.772;2023-09-19T05:31:28;23.25;;;12.75;;
45198;SDS011;30941;46.422;18.772;2023-09-19T05:33:53;20.75;;;13.15;;
45198;SDS011;30941;46.422;18.772;2023-09-19T05:36:20;16.98;;;12.48;;
45198;SDS011;30941;46.422;18.772;2023-09-19T05:38:45;20.27;;;12.98;;
45198;SDS011;30941;46.422;18.772;2023-09-19T05:41:13;16.60;;;13.25;;
45198;SDS011;30941;46.422;18.772;2023-09-19T05:43:40;18.17;;;12.48;;
45198;SDS011;30941;46.422;18.772;2023-09-19T05:46:06;19.50;;;13.40;;
45198;SDS011;30941;46.422;18.772;2023-09-19T05:48:33;24.27;;;13.07;;
45198;SDS011;30941;46.422;18.772;2023-09-19T05:50:59;18.25;;;13.40;;
45198;SDS011;30941;46.422;18.772;2023-09-19T05:53:26;21.02;;;13.20;;
45198;SDS011;30941;46.422;18.772;2023-09-19T05:55:52;16.25;;;12.90;;
45198;SDS011;30941;46.422;18.772;2023-09-19T05:58:18;16.42;;;12.95;;
45198;SDS011;30941;46.422;18.772;2023-09-19T06:00:45;24.63;;;13.73;;
45198;SDS011;30941;46.422;18.772;2023-09-19T06:03:12;17.38;;;14.50;;
45198;SDS011;30941;46.422;18.772;2023-09-19T06:05:39;21.48;;;14.32;;
45198;SDS011;30941;46.422;18.772;2023-09-19T06:08:05;24.73;;;14.38;;
45198;SDS011;30941;46.422;18.772;2023-09-19T06:10:32;22.33;;;13.20;;
45198;SDS011;30941;46.422;18.772;2023-09-19T06:12:59;19.95;;;11.98;;
45198;SDS011;30941;46.422;18.772;2023-09-19T06:15:25;18.10;;;11.07;;
45198;SDS011;30941;46.422;18.772;2023-09-19T06:17:51;14.40;;;9.50;;
45198;SDS011;30941;46.422;18.772;2023-09-19T06:20:20;16.05;;;9.85;;
45198;SDS011;30941;46.422;18.772;2023-09-19T06:22:47;12.20;;;6.20;;
45198;SDS011;30941;46.422;18.772;2023-09-19T06:25:13;9.27;;;4.00;;
45198;SDS011;30941;46.422;18.772;2023-09-19T06:27:47;6.00;;;2.47;;
45198;SDS011;30941;46.422;18.772;2023-09-19T06:30:16;3.72;;;2.20;;
45198;SDS011;30941;46.422;18.772;2023-09-19T06:32:42;1.80;;;1.52;;
45198;SDS011;30941;46.422;18.772;2023-09-19T06:35:09;4.70;;;2.03;;
45198;SDS011;30941;46.422;18.772;2023-09-19T06:37:36;6.53;;;1.80;;
45198;SDS011;30941;46.422;18.772;2023-09-19T06:40:04;4.15;;;2.00;;
45198;SDS011;30941;46.422;18.772;2023-09-19T06:42:51;4.95;;;1.92;;
45198;SDS011;30941;46.422;18.772;2023-09-19T06:45:21;3.97;;;1.75;;
45198;SDS011;30941;46.422;18.772;2023-09-19T06:47:50;8.13;;;2.30;;
45198;SDS011;30941;46.422;18.772;2023-09-19T06:50:20;7.68;;;1.77;;
45198;SDS011;30941;46.422;18.772;2023-09-19T06:52:50;2.25;;;1.20;;
45198;SDS011;30941;46.422;18.772;2023-09-19T06:55:17;5.55;;;1.98;;
45198;SDS011;30941;46.422;18.772;2023-09-19T06:57:44;2.95;;;1.83;;
45198;SDS011;30941;46.422;18.772;2023-09-19T07:00:10;5.50;;;1.95;;
45198;SDS011;30941;46.422;18.772;2023-09-19T07:03:00;4.45;;;1.48;;
45198;SDS011;30941;46.422;18.772;2023-09-19T07:05:32;7.07;;;1.90;;
45198;SDS011;30941;46.422;18.772;2023-09-19T07:07:58;2.65;;;1.60;;
45198;SDS011;30941;46.422;18.772;2023-09-19T07:10:27;3.10;;;1.67;;
45198;SDS011;30941;46.422;18.772;2023-09-19T07:13:00;6.95;;;1.60;;
45198;SDS011;30941;46.422;18.772;2023-09-19T07:15:26;2.60;;;1.60;;
45198;SDS011;30941;46.422;18.772;2023-09-19T07:17:53;6.68;;;1.77;;
45198;SDS011;30941;46.422;18.772;2023-09-19T07:20:19;2.67;;;1.27;;
45198;SDS011;30941;46.422;18.772;2023-09-19T07:22:45;2.13;;;1.67;;
45198;SDS011;30941;46.422;18.772;2023-09-19T07:25:10;5.55;;;1.70;;
45198;SDS011;30941;46.422;18.772;2023-09-19T07:27:35;1.77;;;1.00;;
45198;SDS011;30941;46.422;18.772;2023-09-19T07:30:01;2.42;;;1.88;;
45198;SDS011;30941;46.422;18.772;2023-09-19T07:32:26;5.95;;;1.63;;
45198;SDS011;30941;46.422;18.772;2023-09-19T07:34:52;6.13;;;1.80;;
45198;SDS011;30941;46.422;18.772;2023-09-19T07:37:18;2.72;;;1.40;;
45198;SDS011;30941;46.422;18.772;2023-09-19T07:39:43;1.65;;;0.98;;
45198;SDS011;30941;46.422;18.772;2023-09-19T07:42:09;3.90;;;1.50;;
45198;SDS011;30941;46.422;18.772;2023-09-19T07:44:36;6.18;;;1.98;;
45198;SDS011;30941;46.422;18.772;2023-09-19T07:47:02;2.75;;;1.35;;
45198;SDS011;30941;46.422;18.772;2023-09-19T07:49:28;2.40;;;1.50;;
45198;SDS011;30941;46.422;18.772;2023-09-19T07:51:53;3.50;;;1.60;;
45198;SDS011;30941;46.422;18.772;2023-09-19T07:54:19;2.25;;;1.52;;
45198;SDS011;30941;46.422;18.772;2023-09-19T07:56:45;1.35;;;1.02;;
45198;SDS011;30941;46.422;18.772;2023-09-19T07:59:11;3.30;;;1.45;;
45198;SDS011;30941;46.422;18.772;2023-09-19T08:01:37;1.65;;;1.25;;
45198;SDS011;30941;46.422;18.772;2023-09-19T08:04:04;2.38;;;1.45;;
45198;SDS011;30941;46.422;18.772;2023-09-19T08:06:30;3.42;;;1.70;;
45198;SDS011;30941;46.422;18.772;2023-09-19T08:08:56;4.13;;;1.40;;
45198;SDS011;30941;46.422;18.772;2023-09-19T08:11:22;2.58;;;1.50;;
45198;SDS011;30941;46.422;18.772;2023-09-19T08:13:49;3.00;;;1.33;;
45198;SDS011;30941;46.422;18.772;2023-09-19T08:16:15;2.10;;;1.50;;
45198;SDS011;30941;46.422;18.772;2023-09-19T08:18:48;2.65;;;1.60;;
45198;SDS011;30941;46.422;18.772;2023-09-19T08:21:13;11.07;;;3.05;;
45198;SDS011;30941;46.422;18.772;2023-09-19T08:23:39;2.95;;;1.55;;
45198;SDS011;30941;46.422;18.772;2023-09-19T08:26:05;2.22;;;1.42;;
45198;SDS011;30941;46.422;18.772;2023-09-19T08:28:34;3.83;;;1.50;;
45198;SDS011;30941;46.422;18.772;2023-09-19T08:31:03;2.20;;;1.50;;
45198;SDS011;30941;46.422;18.772;2023-09-19T08:33:35;4.75;;;1.80;;
45198;SDS011;30941;46.422;18.772;2023-09-19T08:36:01;2.40;;;1.50;;
45198;SDS011;30941;46.422;18.772;2023-09-19T08:38:29;2.85;;;1.38;;
45198;SDS011;30941;46.422;18.772;2023-09-19T08:40:58;5.30;;;1.42;;
45198;SDS011;30941;46.422;18.772;2023-09-19T08:43:27;4.65;;;1.40;;
45198;SDS011;30941;46.422;18.772;2023-09-19T08:46:15;7.85;;;1.83;;
45198;SDS011;30941;46.422;18.772;2023-09-19T08:48:45;5.60;;;1.63;;
45198;SDS011;30941;46.422;18.772;2023-09-19T08:51:17;4.53;;;1.65;;
45198;SDS011;30941;46.422;18.772;2023-09-19T08:56:30;5.20;;;2.10;;
45198;SDS011;30941;46.422;18.772;2023-09-19T08:58:59;3.78;;;1.80;;
45198;SDS011;30941;46.422;18.772;2023-09-19T09:01:27;3.97;;;1.80;;
45198;SDS011;30941;46.422;18.772;2023-09-19T09:03:53;2.90;;;1.58;;
45198;SDS011;30941;46.422;18.772;2023-09-19T09:06:19;3.00;;;1.52;;
45198;SDS011;30941;46.422;18.772;2023-09-19T09:08:45;3.00;;;1.55;;
45198;SDS011;30941;46.422;18.772;2023-09-19T09:11:11;5.53;;;1.85;;
45198;SDS011;30941;46.422;18.772;2023-09-19T09:13:36;5.70;;;1.70;;
45198;SDS011;30941;46.422;18.772;2023-09-19T09:16:02;3.42;;;1.83;;
45198;SDS011;30941;46.422;18.772;2023-09-19T09:18:28;4.53;;;1.75;;
45198;SDS011;30941;46.422;18.772;2023-09-19T09:20:55;4.78;;;1.70;;
45198;SDS011;30941;46.422;18.772;2023-09-19T09:23:21;2.08;;;1.40;;
45198;SDS011;30941;46.422;18.772;2023-09-19T09:25:50;3.15;;;1.67;;
45198;SDS011;30941;46.422;18.772;2023-09-19T09:28:20;4.63;;;1.80;;
45198;SDS011;30941;46.422;18.772;2023-09-19T09:30:47;4.57;;;1.30;;
45198;SDS011;30941;46.422;18.772;2023-09-19T09:33:13;4.55;;;1.70;;
45198;SDS011;30941;46.422;18.772;2023-09-19T09:38:19;2.90;;;1.80;;
45198;SDS011;30941;46.422;18.772;2023-09-19T09:40:51;1.95;;;1.35;;
45198;SDS011;30941;46.422;18.772;2023-09-19T09:43:38;3.15;;;1.50;;
45198;SDS011;30941;46.422;18.772;2023-09-19T09:46:18;2.75;;;1.52;;
45198;SDS011;30941;46.422;18.772;2023-09-19T09:49:00;5.83;;;1.47;;
45198;SDS011;30941;46.422;18.772;2023-09-19T09:51:42;3.80;;;1.58;;
45198;SDS011;30941;46.422;18.772;2023-09-19T09:59:19;4.20;;;1.98;;
45198;SDS011;30941;46.422;18.772;2023-09-19T10:01:53;2.42;;;1.60;;
45198;SDS011;30941;46.422;18.772;2023-09-19T10:04:28;4.65;;;1.65;;
45198;SDS011;30941;46.422;18.772;2023-09-19T10:06:56;3.33;;;1.67;;
45198;SDS011;30941;46.422;18.772;2023-09-19T10:09:22;4.00;;;1.83;;
45198;SDS011;30941;46.422;18.772;2023-09-19T10:12:07;4.40;;;1.85;;
45198;SDS011;30941;46.422;18.772;2023-09-19T10:14:35;2.45;;;1.50;;
45198;SDS011;30941;46.422;18.772;2023-09-19T10:17:04;5.25;;;1.60;;
45198;SDS011;30941;46.422;18.772;2023-09-19T10:19:36;1.33;;;1.13;;
45198;SDS011;30941;46.422;18.772;2023-09-19T10:22:02;3.72;;;1.60;;
45198;SDS011;30941;46.422;18.772;2023-09-19T10:24:30;2.10;;;1.27;;
45198;SDS011;30941;46.422;18.772;2023-09-19T10:26:59;3.20;;;1.45;;
45198;SDS011;30941;46.422;18.772;2023-09-19T10:29:25;2.92;;;1.60;;
45198;SDS011;30941;46.422;18.772;2023-09-19T10:31:53;4.38;;;1.60;;
45198;SDS011;30941;46.422;18.772;2023-09-19T10:34:19;3.80;;;1.52;;
45198;SDS011;30941;46.422;18.772;2023-09-19T10:36:45;3.33;;;1.60;;
45198;SDS011;30941;46.422;18.772;2023-09-19T10:39:15;2.85;;;1.42;;
45198;SDS011;30941;46.422;18.772;2023-09-19T10:41:47;3.33;;;1.50;;
45198;SDS011;30941;46.422;18.772;2023-09-19T10:44:19;2.10;;;1.55;;
45198;SDS011;30941;46.422;18.772;2023-09-19T10:46:49;2.13;;;1.48;;
45198;SDS011;30941;46.422;18.772;2023-09-19T10:49:15;3.42;;;1.67;;
45198;SDS011;30941;46.422;18.772;2023-09-19T10:51:41;9.18;;;1.85;;
45198;SDS011;30941;46.422;18.772;2023-09-19T10:56:38;3.05;;;1.80;;
45198;SDS011;30941;46.422;18.772;2023-09-19T10:59:10;2.33;;;1.58;;
45198;SDS011;30941;46.422;18.772;2023-09-19T11:04:35;5.00;;;1.60;;
45198;SDS011;30941;46.422;18.772;2023-09-19T11:07:11;3.60;;;1.55;;
45198;SDS011;30941;46.422;18.772;2023-09-19T11:09:50;2.08;;;1.40;;
45198;SDS011;30941;46.422;18.772;2023-09-19T11:14:56;1.88;;;1.27;;
45198;SDS011;30941;46.422;18.772;2023-09-19T11:30:47;1.60;;;1.33;;
45198;SDS011;30941;46.422;18.772;2023-09-19T11:33:23;4.03;;;1.60;;
45198;SDS011;30941;46.422;18.772;2023-09-19T11:36:09;2.53;;;1.40;;
45198;SDS011;30941;46.422;18.772;2023-09-19T11:43:45;2.10;;;1.35;;
45198;SDS011;30941;46.422;18.772;2023-09-19T11:46:11;3.58;;;1.60;;
45198;SDS011;30941;46.422;18.772;2023-09-19T11:48:38;4.15;;;1.92;;
45198;SDS011;30941;46.422;18.772;2023-09-19T11:51:12;3.58;;;1.60;;
45198;SDS011;30941;46.422;18.772;2023-09-19T11:53:45;3.50;;;1.70;;
45198;SDS011;30941;46.422;18.772;2023-09-19T11:56:14;3.35;;;1.70;;
45198;SDS011;30941;46.422;18.772;2023-09-19T11:58:42;4.68;;;1.80;;
45198;SDS011;30941;46.422;18.772;2023-09-19T12:01:08;3.65;;;1.80;;
45198;SDS011;30941;46.422;18.772;2023-09-19T12:03:45;4.20;;;1.70;;
45198;SDS011;30941;46.422;18.772;2023-09-19T12:06:13;2.28;;;1.50;;
45198;SDS011;30941;46.422;18.772;2023-09-19T12:08:40;2.85;;;1.90;;
45198;SDS011;30941;46.422;18.772;2023-09-19T12:11:11;3.70;;;1.67;;
45198;SDS011;30941;46.422;18.772;2023-09-19T12:13:46;35.13;;;3.60;;
45198;SDS011;30941;46.422;18.772;2023-09-19T12:16:17;3.15;;;1.70;;
45198;SDS011;30941;46.422;18.772;2023-09-19T12:18:46;3.13;;;1.67;;
45198;SDS011;30941;46.422;18.772;2023-09-19T12:26:38;4.22;;;1.88;;
45198;SDS011;30941;46.422;18.772;2023-09-19T12:29:10;5.03;;;2.47;;
45198;SDS011;30941;46.422;18.772;2023-09-19T12:31:46;4.85;;;1.88;;
45198;SDS011;30941;46.422;18.772;2023-09-19T12:34:33;3.85;;;1.63;;
45198;SDS011;30941;46.422;18.772;2023-09-19T12:39:51;1.50;;;1.40;;
45198;SDS011;30941;46.422;18.772;2023-09-19T12:42:21;2.38;;;1.75;;
45198;SDS011;30941;46.422;18.772;2023-09-19T12:44:48;4.75;;;1.70;;
45198;SDS011;30941;46.422;18.772;2023-09-19T12:47:17;2.72;;;1.50;;
45198;SDS011;30941;46.422;18.772;2023-09-19T12:52:44;3.47;;;1.75;;
45198;SDS011;30941;46.422;18.772;2023-09-19T12:55:20;3.13;;;1.80;;
45198;SDS011;30941;46.422;18.772;2023-09-19T13:00:38;4.22;;;1.88;;
45198;SDS011;30941;46.422;18.772;2023-09-19T13:04:09;3.03;;;1.67;;
45198;SDS011;30941;46.422;18.772;2023-09-19T13:06:03;3.92;;;2.03;;
45198;SDS011;30941;46.422;18.772;2023-09-19T13:08:35;2.45;;;1.70;;
45198;SDS011;30941;46.422;18.772;2023-09-19T13:13:45;2.47;;;1.38;;
45198;SDS011;30941;46.422;18.772;2023-09-19T13:16:14;2.92;;;1.70;;
45198;SDS011;30941;46.422;18.772;2023-09-19T13:18:45;2.72;;;1.63;;
45198;SDS011;30941;46.422;18.772;2023-09-19T13:21:11;2.38;;;1.70;;
45198;SDS011;30941;46.422;18.772;2023-09-19T13:23:47;4.53;;;1.75;;
45198;SDS011;30941;46.422;18.772;2023-09-19T13:26:14;3.28;;;1.35;;
45198;SDS011;30941;46.422;18.772;2023-09-19T13:28:40;3.78;;;1.67;;
45198;SDS011;30941;46.422;18.772;2023-09-19T13:31:05;2.97;;;1.65;;
45198;SDS011;30941;46.422;18.772;2023-09-19T13:33:31;2.63;;;1.48;;
45198;SDS011;30941;46.422;18.772;2023-09-19T13:35:56;3.47;;;1.65;;
45198;SDS011;30941;46.422;18.772;2023-09-19T13:38:22;3.33;;;1.88;;
45198;SDS011;30941;46.422;18.772;2023-09-19T13:40:47;7.00;;;1.80;;
45198;SDS011;30941;46.422;18.772;2023-09-19T13:43:14;4.45;;;1.38;;
45198;SDS011;30941;46.422;18.772;2023-09-19T13:45:40;3.20;;;1.50;;
45198;SDS011;30941;46.422;18.772;2023-09-19T13:48:08;2.30;;;1.35;;
45198;SDS011;30941;46.422;18.772;2023-09-19T13:50:36;4.88;;;1.30;;
45198;SDS011;30941;46.422;18.772;2023-09-19T13:53:07;3.05;;;1.50;;
45198;SDS011;30941;46.422;18.772;2023-09-19T13:55:32;6.57;;;1.77;;
45198;SDS011;30941;46.422;18.772;2023-09-19T13:57:58;3.67;;;1.60;;
45198;SDS011;30941;46.422;18.772;2023-09-19T14:00:24;3.80;;;1.52;;
45198;SDS011;30941;46.422;18.772;2023-09-19T14:02:49;2.45;;;1.60;;
45198;SDS011;30941;46.422;18.772;2023-09-19T14:05:15;5.43;;;1.70;;
45198;SDS011;30941;46.422;18.772;2023-09-19T14:07:42;6.10;;;1.50;;
45198;SDS011;30941;46.422;18.772;2023-09-19T14:10:08;3.00;;;1.70;;
45198;SDS011;30941;46.422;18.772;2023-09-19T14:12:35;2.70;;;1.38;;
45198;SDS011;30941;46.422;18.772;2023-09-19T14:15:05;3.38;;;1.80;;
45198;SDS011;30941;46.422;18.772;2023-09-19T14:17:32;2.83;;;1.48;;
45198;SDS011;30941;46.422;18.772;2023-09-19T14:19:57;4.20;;;1.30;;
45198;SDS011;30941;46.422;18.772;2023-09-19T14:22:23;3.17;;;1.00;;
45198;SDS011;30941;46.422;18.772;2023-09-19T14:24:48;4.57;;;1.55;;
45198;SDS011;30941;46.422;18.772;2023-09-19T14:27:14;2.60;;;1.60;;
45198;SDS011;30941;46.422;18.772;2023-09-19T14:29:39;3.03;;;1.73;;
45198;SDS011;30941;46.422;18.772;2023-09-19T14:32:06;7.75;;;1.60;;
45198;SDS011;30941;46.422;18.772;2023-09-19T14:34:32;4.80;;;1.48;;
45198;SDS011;30941;46.422;18.772;2023-09-19T14:36:57;2.63;;;1.50;;
45198;SDS011;30941;46.422;18.772;2023-09-19T14:39:23;3.00;;;1.42;;
45198;SDS011;30941;46.422;18.772;2023-09-19T14:41:49;3.50;;;1.20;;
45198;SDS011;30941;46.422;18.772;2023-09-19T14:44:14;4.65;;;1.83;;
45198;SDS011;30941;46.422;18.772;2023-09-19T14:46:41;3.45;;;1.58;;
45198;SDS011;30941;46.422;18.772;2023-09-19T14:49:08;3.35;;;1.50;;
45198;SDS011;30941;46.422;18.772;2023-09-19T14:51:35;2.75;;;1.40;;
45198;SDS011;30941;46.422;18.772;2023-09-19T14:54:00;2.20;;;1.48;;
45198;SDS011;30941;46.422;18.772;2023-09-19T14:56:27;4.30;;;1.70;;
45198;SDS011;30941;46.422;18.772;2023-09-19T14:58:55;5.05;;;1.70;;
45198;SDS011;30941;46.422;18.772;2023-09-19T15:01:21;1.60;;;1.15;;
45198;SDS011;30941;46.422;18.772;2023-09-19T15:03:47;3.33;;;1.60;;
45198;SDS011;30941;46.422;18.772;2023-09-19T15:06:14;7.18;;;1.85;;
45198;SDS011;30941;46.422;18.772;2023-09-19T15:08:43;5.50;;;1.80;;
45198;SDS011;30941;46.422;18.772;2023-09-19T15:11:13;3.92;;;1.58;;
45198;SDS011;30941;46.422;18.772;2023-09-19T15:13:41;2.20;;;1.63;;
45198;SDS011;30941;46.422;18.772;2023-09-19T15:16:08;4.90;;;1.75;;
45198;SDS011;30941;46.422;18.772;2023-09-19T15:18:35;2.25;;;1.50;;
45198;SDS011;30941;46.422;18.772;2023-09-19T15:21:05;3.78;;;1.52;;
45198;SDS011;30941;46.422;18.772;2023-09-19T15:23:33;3.03;;;1.48;;
45198;SDS011;30941;46.422;18.772;2023-09-19T15:26:02;2.40;;;1.50;;
45198;SDS011;30941;46.422;18.772;2023-09-19T15:28:29;7.13;;;1.77;;
45198;SDS011;30941;46.422;18.772;2023-09-19T15:31:02;5.68;;;2.10;;
45198;SDS011;30941;46.422;18.772;2023-09-19T15:36:03;3.65;;;1.60;;
45198;SDS011;30941;46.422;18.772;2023-09-19T15:38:54;4.63;;;1.63;;
45198;SDS011;30941;46.422;18.772;2023-09-19T15:41:25;4.07;;;1.80;;
45198;SDS011;30941;46.422;18.772;2023-09-19T15:43:53;3.28;;;1.77;;
45198;SDS011;30941;46.422;18.772;2023-09-19T15:46:19;3.45;;;1.40;;